Time;durP1;ratioP1;P1;durP2;ratioP2;P2;SDS_P1;SDS_P2;PMS_P1;PMS_P2;Temp;Humidity;BMP_temperature;BMP_pressure;BME280_temperature;BME280_humidity;BME280_pressure;Samples;Min_cycle;Max_cycle;Signal;HPM_P1;HPM_P2
2023/11/11 06:15:40;;;;;;;;;25.50;22.75;;;;;;;;6064825;22;11714;-78
2023/11/11 06:18:06;;;;;;;;;23.00;21.00;;;;;;;;5031280;28;11590;-75
2023/11/11 06:20:31;;;;;;;;;21.00;19.25;;;;;;;;5032030;28;8930;-77
2023/11/11 06:22:57;;;;;;;;;33.00;24.00;;;;;;;;5031121;28;11679;-77
2023/11/11 06:25:22;;;;;;;;;29.75;25.00;;;;;;;;5032071;28;8908;-77
2023/11/11 06:27:48;;;;;;;;;20.75;19.75;;;;;;;;5032947;28;8803;-77
2023/11/11 06:30:16;;;;;;;;;20.50;19.50;;;;;;;;5032706;28;8874;-77
2023/11/11 06:32:42;;;;;;;;;20.50;18.25;;;;;;;;5032917;28;8772;-78
2023/11/11 06:35:08;;;;;;;;;55.60;45.20;;;;;;;;5032339;28;11506;-77
2023/11/11 09:50:27;;;;;;;;;28.75;25.75;;;;;;;;5085831;27;14303;-82
2023/11/11 09:52:54;;;;;;;;;25.00;18.50;;;;;;;;5037412;27;11532;-84
2023/11/11 09:55:20;;;;;;;;;26.00;21.00;;;;;;;;5025799;28;8889;-75
2023/11/11 09:57:46;;;;;;;;;24.00;21.25;;;;;;;;5027103;28;11534;-74
2023/11/11 10:00:12;;;;;;;;;21.75;19.50;;;;;;;;5027415;28;8776;-75
2023/11/11 10:02:38;;;;;;;;;27.50;20.25;;;;;;;;5026964;28;11559;-72
2023/11/11 10:05:04;;;;;;;;;28.50;22.50;;;;;;;;5026691;28;11503;-77
2023/11/11 10:07:29;;;;;;;;;24.50;22.00;;;;;;;;5027272;28;8796;-75
2023/11/11 10:09:55;;;;;;;;;29.00;25.50;;;;;;;;5020551;28;11652;-75
2023/11/11 10:12:21;;;;;;;;;23.50;23.25;;;;;;;;5013671;28;8855;-74
2023/11/11 10:14:47;;;;;;;;;22.50;21.00;;;;;;;;5009906;28;12354;-74
2023/11/11 10:17:13;;;;;;;;;24.50;21.00;;;;;;;;5021947;28;10112;-75
2023/11/11 10:19:42;;;;;;;;;23.25;21.00;;;;;;;;5011695;28;11565;-75
2023/11/11 10:22:08;;;;;;;;;23.75;21.25;;;;;;;;5007334;28;11570;-74
2023/11/11 10:24:33;;;;;;;;;28.50;22.25;;;;;;;;5007081;28;11578;-76
2023/11/11 10:26:58;;;;;;;;;28.00;23.25;;;;;;;;5022224;28;8863;-74
2023/11/11 10:29:24;;;;;;;;;24.50;17.75;;;;;;;;5022438;28;8887;-74
2023/11/11 10:31:49;;;;;;;;;22.75;21.50;;;;;;;;5016976;28;8828;-74
2023/11/11 10:34:15;;;;;;;;;28.00;23.00;;;;;;;;5041290;28;8877;-72
2023/11/11 10:36:40;;;;;;;;;27.50;23.00;;;;;;;;5026525;28;8856;-72
2023/11/11 10:39:08;;;;;;;;;22.50;21.75;;;;;;;;5026658;28;8799;-73
2023/11/11 10:41:33;;;;;;;;;22.25;21.00;;;;;;;;5042023;28;9824;-74
2023/11/11 10:43:59;;;;;;;;;25.00;21.00;;;;;;;;5026310;28;11587;-79
2023/11/11 10:46:24;;;;;;;;;25.00;23.75;;;;;;;;5027168;28;8836;-76
2023/11/11 10:48:50;;;;;;;;;24.75;21.25;;;;;;;;5033838;28;8840;-75
2023/11/11 10:51:16;;;;;;;;;21.00;19.75;;;;;;;;5061648;28;8817;-74
2023/11/11 10:53:43;;;;;;;;;25.00;20.00;;;;;;;;5051427;28;8816;-72
2023/11/11 10:56:09;;;;;;;;;28.25;24.00;;;;;;;;5046398;28;12204;-72
2023/11/11 10:58:38;;;;;;;;;21.25;18.00;;;;;;;;5046230;28;11522;-74
2023/11/11 11:01:04;;;;;;;;;21.25;19.25;;;;;;;;5036954;28;11446;-71
2023/11/11 11:03:30;;;;;;;;;19.50;18.25;;;;;;;;5032969;28;11538;-74
2023/11/11 11:06:10;;;;;;;;;22.50;22.00;;;;;;;;5032905;28;11429;-77
2023/11/11 11:08:53;;;;;;;;;20.50;19.50;;;;;;;;5033003;28;9612;-75
2023/11/11 11:11:25;;;;;;;;;22.75;21.00;;;;;;;;5032856;28;10336;-73
2023/11/11 11:13:52;;;;;;;;;23.00;20.75;;;;;;;;5032588;28;9896;-74
2023/11/11 11:16:28;;;;;;;;;23.33;18.33;;;;;;;;5032447;28;9652;-74
2023/11/11 11:18:54;;;;;;;;;22.25;20.00;;;;;;;;5031211;28;9485;-75
2023/11/11 11:21:20;;;;;;;;;20.75;17.25;;;;;;;;5032339;28;9655;-75
2023/11/11 11:23:49;;;;;;;;;21.50;19.00;;;;;;;;5032614;28;9783;-75
2023/11/11 11:26:24;;;;;;;;;19.75;17.25;;;;;;;;5032391;28;10032;-74
2023/11/11 11:29:08;;;;;;;;;21.00;17.00;;;;;;;;5032414;28;10365;-75
2023/11/11 11:31:53;;;;;;;;;18.75;18.25;;;;;;;;5032374;28;10563;-76
2023/11/11 11:34:18;;;;;;;;;24.25;20.50;;;;;;;;5032109;28;10691;-75
2023/11/11 11:36:54;;;;;;;;;23.25;20.25;;;;;;;;5014625;28;11295;-77
2023/11/11 11:39:21;;;;;;;;;19.00;18.00;;;;;;;;5012651;28;8841;-77
2023/11/11 11:41:47;;;;;;;;;22.75;21.25;;;;;;;;5023616;28;11074;-74
2023/11/11 11:44:14;;;;;;;;;18.25;17.75;;;;;;;;5030792;28;11191;-78
2023/11/11 11:46:39;;;;;;;;;17.25;16.50;;;;;;;;5031883;28;8835;-76
2023/11/11 11:49:05;;;;;;;;;18.00;14.00;;;;;;;;5031816;28;11099;-77
2023/11/11 11:51:30;;;;;;;;;14.00;14.00;;;;;;;;5014567;28;8896;-72
2023/11/11 11:53:56;;;;;;;;;12.25;9.00;;;;;;;;5013636;28;11584;-72
2023/11/11 11:56:32;;;;;;;;;7.00;7.00;;;;;;;;5032127;28;8808;-75
2023/11/11 11:58:59;;;;;;;;;6.00;4.00;;;;;;;;5031758;28;8897;-70
2023/11/11 12:01:27;;;;;;;;;8.75;6.50;;;;;;;;5014059;28;11609;-71
2023/11/11 12:03:53;;;;;;;;;5.25;4.00;;;;;;;;5031836;28;10829;-74
2023/11/11 12:06:19;;;;;;;;;4.00;4.00;;;;;;;;5030719;28;10869;-73
2023/11/11 12:08:49;;;;;;;;;15.00;15.00;;;;;;;;5012880;28;12393;-75
2023/11/11 12:11:20;;;;;;;;;5.25;5.25;;;;;;;;5031356;28;11423;-73
2023/11/11 12:13:45;;;;;;;;;9.25;7.50;;;;;;;;5031709;28;11194;-71
2023/11/11 12:16:11;;;;;;;;;8.00;6.00;;;;;;;;5032477;28;10961;-73
2023/11/11 12:18:36;;;;;;;;;6.50;6.50;;;;;;;;5032577;28;8917;-71
2023/11/11 12:21:02;;;;;;;;;14.50;9.50;;;;;;;;5032230;28;8793;-73
2023/11/11 12:23:28;;;;;;;;;3.50;3.50;;;;;;;;5030634;28;8939;-67
2023/11/11 12:25:53;;;;;;;;;8.00;4.00;;;;;;;;5031679;28;8796;-70
2023/11/11 12:28:19;;;;;;;;;4.75;4.00;;;;;;;;5031507;28;10987;-71
2023/11/11 12:30:44;;;;;;;;;2.25;1.25;;;;;;;;5031335;28;8796;-73
2023/11/11 12:33:10;;;;;;;;;6.00;5.00;;;;;;;;5031172;28;8889;-70
2023/11/11 12:35:37;;;;;;;;;4.50;2.50;;;;;;;;5031052;28;8823;-70
2023/11/11 12:38:22;;;;;;;;;2.00;1.50;;;;;;;;5023115;28;8834;-70
2023/11/11 12:40:48;;;;;;;;;1.00;1.00;;;;;;;;5022902;28;11078;-72
2023/11/11 12:43:13;;;;;;;;;2.50;1.25;;;;;;;;5031026;28;10972;-67
2023/11/11 12:45:44;;;;;;;;;1.50;1.25;;;;;;;;5029326;28;8805;-69
2023/11/11 12:48:10;;;;;;;;;4.00;3.50;;;;;;;;5012807;28;9022;-68
2023/11/11 12:50:36;;;;;;;;;4.25;4.00;;;;;;;;5028569;28;11146;-71
2023/11/11 12:53:09;;;;;;;;;9.25;7.00;;;;;;;;5028142;28;9651;-71
2023/11/11 12:55:35;;;;;;;;;1.75;1.75;;;;;;;;5028348;28;8804;-71
2023/11/11 12:58:23;;;;;;;;;2.00;1.00;;;;;;;;5030586;28;10924;-77
2023/11/11 13:00:56;;;;;;;;;3.00;2.00;;;;;;;;5031210;28;9317;-71
2023/11/11 13:03:29;;;;;;;;;2.50;1.50;;;;;;;;5031288;28;11197;-71
2023/11/11 13:06:00;;;;;;;;;5.00;2.00;;;;;;;;5031419;28;11043;-71
2023/11/11 13:08:29;;;;;;;;;5.00;2.00;;;;;;;;5028600;28;11061;-72
2023/11/11 13:10:54;;;;;;;;;1.00;1.00;;;;;;;;5029675;28;11061;-72
2023/11/11 13:13:20;;;;;;;;;5.00;4.50;;;;;;;;5024824;28;10993;-72
2023/11/11 13:15:48;;;;;;;;;3.00;1.25;;;;;;;;5020009;28;8842;-76
2023/11/11 13:18:13;;;;;;;;;3.50;2.00;;;;;;;;5021343;28;8813;-75
2023/11/11 13:20:39;;;;;;;;;3.75;3.00;;;;;;;;5030204;28;11128;-70
2023/11/11 13:23:05;;;;;;;;;4.75;2.50;;;;;;;;5030526;28;8910;-70
2023/11/11 13:25:31;;;;;;;;;11.00;5.00;;;;;;;;5030110;28;8809;-68
2023/11/11 13:27:57;;;;;;;;;7.00;5.50;;;;;;;;5030845;28;11122;-67
2023/11/11 13:30:23;;;;;;;;;2.00;2.00;;;;;;;;5030418;28;8832;-67
2023/11/11 13:32:48;;;;;;;;;6.25;4.25;;;;;;;;5030690;28;11744;-66
2023/11/11 13:35:16;;;;;;;;;4.00;1.50;;;;;;;;5031188;28;8870;-70
2023/11/11 13:37:42;;;;;;;;;3.25;1.75;;;;;;;;5030248;28;8838;-69
2023/11/11 13:40:28;;;;;;;;;2.50;1.25;;;;;;;;5029705;28;10838;-68
2023/11/11 13:42:53;;;;;;;;;3.00;1.00;;;;;;;;5029316;28;8796;-70
2023/11/11 13:45:19;;;;;;;;;1.75;1.50;;;;;;;;5029107;28;10641;-69
2023/11/11 13:47:45;;;;;;;;;1.00;1.00;;;;;;;;5030216;28;8860;-68
2023/11/11 13:50:14;;;;;;;;;6.00;5.00;;;;;;;;5029462;28;10963;-69
2023/11/11 13:52:39;;;;;;;;;15.75;14.50;;;;;;;;5030054;28;8785;-69
2023/11/11 13:55:04;;;;;;;;;1.25;0.75;;;;;;;;5029962;28;11540;-69
2023/11/11 13:57:30;;;;;;;;;4.00;0.75;;;;;;;;5029850;28;8781;-68
2023/11/11 13:59:56;;;;;;;;;0.00;0.00;;;;;;;;5030028;28;8816;-70
2023/11/11 14:02:21;;;;;;;;;0.00;0.00;;;;;;;;5029752;28;8805;-68
2023/11/11 14:04:46;;;;;;;;;1.50;0.50;;;;;;;;5029468;28;8922;-71
2023/11/11 14:07:13;;;;;;;;;0.00;0.00;;;;;;;;5029663;28;8792;-69
2023/11/11 14:09:39;;;;;;;;;1.00;0.00;;;;;;;;5029840;28;8895;-69
2023/11/11 14:12:04;;;;;;;;;0.75;0.75;;;;;;;;5029893;28;10536;-68
2023/11/11 14:14:29;;;;;;;;;0.75;0.00;;;;;;;;5030343;28;8796;-69
2023/11/11 14:16:55;;;;;;;;;0.00;0.00;;;;;;;;5029941;28;8828;-70
2023/11/11 14:19:20;;;;;;;;;0.00;0.00;;;;;;;;5029684;28;8924;-71
2023/11/11 14:21:47;;;;;;;;;0.00;0.00;;;;;;;;5029658;28;8797;-71
2023/11/11 14:24:12;;;;;;;;;1.00;0.00;;;;;;;;5029658;28;8796;-72
2023/11/11 14:26:44;;;;;;;;;7.00;0.00;;;;;;;;5029201;28;10579;-71
2023/11/11 14:29:10;;;;;;;;;0.00;0.00;;;;;;;;5029722;28;9554;-69
2023/11/11 14:31:35;;;;;;;;;0.50;0.25;;;;;;;;5029397;28;10624;-70
2023/11/11 14:34:02;;;;;;;;;4.00;0.00;;;;;;;;5029483;28;8805;-70
2023/11/11 14:36:28;;;;;;;;;1.00;0.00;;;;;;;;5032013;28;8813;-72
2023/11/11 14:38:53;;;;;;;;;1.00;0.00;;;;;;;;5033418;28;11506;-69
2023/11/11 14:41:18;;;;;;;;;0.00;0.00;;;;;;;;5032875;28;8804;-68
2023/11/11 14:45:35;;;;;;;;;;;;;;;;;;5069165;28;14291;-73
2023/11/11 14:48:00;;;;;;;;;4.00;2.25;;;;;;;;5064093;28;13401;-66
2023/11/11 14:50:25;;;;;;;;;4.00;3.00;;;;;;;;5067259;28;9002;-66
2023/11/11 14:52:51;;;;;;;;;7.00;3.00;;;;;;;;5067736;28;8819;-66
2023/11/11 14:55:19;;;;;;;;;2.00;1.00;;;;;;;;5067004;28;8801;-65
2023/11/11 14:57:46;;;;;;;;;4.00;2.75;;;;;;;;5064333;28;8817;-64
2023/11/11 15:00:34;;;;;;;;;1.00;1.00;;;;;;;;5066937;28;10356;-64
2023/11/11 15:02:57;;;;;;;;;4.00;2.25;;;;;;;;5066598;28;10339;-66
2023/11/11 15:05:23;;;;;;;;;2.75;2.75;;;;;;;;5063127;28;10205;-69
2023/11/11 15:07:48;;;;;;;;;6.50;3.50;;;;;;;;5066385;28;8844;-69
2023/11/11 15:10:18;;;;;;;;;14.50;11.75;;;;;;;;5066762;28;8966;-65
2023/11/11 15:12:44;;;;;;;;;21.25;16.75;;;;;;;;5067019;28;9006;-64
2023/11/11 15:15:10;;;;;;;;;16.00;15.75;;;;;;;;5068363;28;11882;-64
2023/11/11 15:17:38;;;;;;;;;15.75;11.50;;;;;;;;5066654;28;10992;-66
2023/11/11 15:20:03;;;;;;;;;12.50;9.25;;;;;;;;5066816;28;8801;-65
2023/11/11 15:22:28;;;;;;;;;7.00;5.50;;;;;;;;5066221;28;14043;-77
2023/11/11 15:24:54;;;;;;;;;3.25;2.00;;;;;;;;5065272;28;8852;-76
2023/11/11 15:27:20;;;;;;;;;3.25;2.25;;;;;;;;5063700;28;8824;-78
2023/11/11 15:29:48;;;;;;;;;5.00;3.50;;;;;;;;5066490;28;9539;-78
2023/11/11 15:32:14;;;;;;;;;3.75;2.25;;;;;;;;5065302;28;11481;-78
2023/11/11 15:34:41;;;;;;;;;4.50;3.00;;;;;;;;5066157;28;10556;-79
2023/11/11 15:37:06;;;;;;;;;4.25;2.00;;;;;;;;5066595;28;8777;-77
2023/11/11 15:39:33;;;;;;;;;3.00;3.00;;;;;;;;5065171;28;10566;-77
2023/11/11 15:42:02;;;;;;;;;2.50;2.00;;;;;;;;5065973;28;8821;-77
2023/11/11 15:44:31;;;;;;;;;7.00;6.00;;;;;;;;5066568;28;10891;-77
2023/11/11 15:46:56;;;;;;;;;4.00;3.25;;;;;;;;5066009;28;10933;-78
2023/11/11 15:49:22;;;;;;;;;3.00;3.00;;;;;;;;5066438;28;10866;-79
2023/11/11 15:51:49;;;;;;;;;7.75;6.00;;;;;;;;5066466;28;9635;-82
2023/11/11 15:54:14;;;;;;;;;7.00;5.25;;;;;;;;5066323;28;11452;-78
2023/11/11 15:56:39;;;;;;;;;6.25;6.00;;;;;;;;5053288;28;11773;-78
2023/11/11 15:59:07;;;;;;;;;10.00;7.00;;;;;;;;5054154;28;8829;-75
2023/11/11 16:01:32;;;;;;;;;9.00;7.00;;;;;;;;5052986;28;8785;-81
2023/11/11 16:03:57;;;;;;;;;7.00;7.00;;;;;;;;5052203;28;11375;-78
2023/11/11 16:06:26;;;;;;;;;9.00;7.25;;;;;;;;5052331;28;9542;-78
2023/11/11 16:08:52;;;;;;;;;5.75;5.75;;;;;;;;5052404;28;8908;-79
2023/11/11 16:11:17;;;;;;;;;5.75;5.75;;;;;;;;5050268;28;11128;-79
2023/11/11 16:13:43;;;;;;;;;13.00;7.50;;;;;;;;5052109;28;8795;-77
2023/11/11 16:16:08;;;;;;;;;7.00;7.00;;;;;;;;5052962;28;9319;-81
2023/11/11 16:18:33;;;;;;;;;12.25;7.50;;;;;;;;5043970;28;8833;-81
2023/11/11 16:21:00;;;;;;;;;9.75;6.00;;;;;;;;5037991;28;8903;-84
2023/11/11 16:23:26;;;;;;;;;7.25;6.00;;;;;;;;5050301;28;8946;-84
2023/11/11 16:25:51;;;;;;;;;8.25;8.25;;;;;;;;5051752;28;10770;-78
2023/11/11 16:28:16;;;;;;;;;14.50;9.00;;;;;;;;5051809;28;9546;-78
2023/11/11 16:30:42;;;;;;;;;9.25;8.75;;;;;;;;5050651;28;8797;-77
2023/11/11 16:33:07;;;;;;;;;7.25;6.25;;;;;;;;5051720;28;8770;-77
2023/11/11 16:35:32;;;;;;;;;13.75;9.50;;;;;;;;5051182;28;8823;-77
2023/11/11 16:37:58;;;;;;;;;12.25;10.00;;;;;;;;5051594;28;8778;-77
2023/11/11 16:40:23;;;;;;;;;12.75;10.00;;;;;;;;5051847;28;8758;-76
2023/11/11 16:42:48;;;;;;;;;16.25;11.50;;;;;;;;5052772;28;8828;-76
2023/11/11 16:45:13;;;;;;;;;9.50;7.25;;;;;;;;5051510;28;9615;-77
2023/11/11 16:47:39;;;;;;;;;11.50;7.75;;;;;;;;5051385;28;8978;-77
2023/11/11 16:50:05;;;;;;;;;17.50;12.25;;;;;;;;5051593;28;8786;-77
2023/11/11 16:52:30;;;;;;;;;13.00;11.50;;;;;;;;5051014;28;8817;-76
2023/11/11 16:54:55;;;;;;;;;12.00;10.25;;;;;;;;5050726;28;8898;-77
2023/11/11 16:57:21;;;;;;;;;20.75;15.00;;;;;;;;5050949;28;9695;-77
2023/11/11 16:59:47;;;;;;;;;18.00;16.50;;;;;;;;5051321;28;8809;-77
2023/11/11 17:02:12;;;;;;;;;43.50;38.50;;;;;;;;5051604;28;8834;-79
2023/11/11 17:04:37;;;;;;;;;31.25;28.00;;;;;;;;5051415;28;11584;-78
2023/11/11 17:07:03;;;;;;;;;17.00;10.75;;;;;;;;5050747;28;8777;-78
2023/11/11 17:09:31;;;;;;;;;23.25;19.25;;;;;;;;5051337;28;8863;-79
2023/11/11 17:11:57;;;;;;;;;16.00;14.75;;;;;;;;5051533;28;8839;-78
2023/11/11 17:14:23;;;;;;;;;17.00;14.00;;;;;;;;5050644;28;11585;-78
2023/11/11 17:16:48;;;;;;;;;14.25;10.75;;;;;;;;5050291;28;11438;-82
2023/11/11 17:19:13;;;;;;;;;10.25;10.25;;;;;;;;5051036;28;8824;-82
2023/11/11 17:21:38;;;;;;;;;13.25;11.00;;;;;;;;5051523;28;8882;-83
2023/11/11 17:24:05;;;;;;;;;18.75;12.25;;;;;;;;5051300;28;8869;-83
2023/11/11 17:26:30;;;;;;;;;15.50;12.00;;;;;;;;5051404;28;8797;-79
2023/11/11 17:28:55;;;;;;;;;31.75;28.75;;;;;;;;5051010;28;11481;-82
2023/11/11 17:31:20;;;;;;;;;23.75;21.25;;;;;;;;5051039;28;8789;-83
2023/11/11 17:33:46;;;;;;;;;37.25;31.50;;;;;;;;5053069;28;8801;-82
2023/11/11 17:36:11;;;;;;;;;23.00;18.75;;;;;;;;5050774;28;8898;-83
2023/11/11 17:38:39;;;;;;;;;22.25;20.75;;;;;;;;5050928;28;8770;-78
2023/11/11 17:41:10;;;;;;;;;15.25;14.25;;;;;;;;5051273;28;8816;-80
2023/11/11 17:43:35;;;;;;;;;17.00;12.50;;;;;;;;5049334;28;12411;-78
2023/11/11 17:46:00;;;;;;;;;13.25;12.50;;;;;;;;5051374;28;11452;-87
2023/11/11 17:48:26;;;;;;;;;19.25;15.75;;;;;;;;5051372;28;9547;-87
2023/11/11 17:50:51;;;;;;;;;18.25;16.25;;;;;;;;5049863;28;8800;-76
2023/11/11 17:53:17;;;;;;;;;15.25;14.00;;;;;;;;5051187;28;8798;-77
2023/11/11 17:55:42;;;;;;;;;17.25;14.75;;;;;;;;5050567;28;8785;-75
2023/11/11 17:58:07;;;;;;;;;17.50;15.25;;;;;;;;5050894;28;8786;-75
2023/11/11 18:00:32;;;;;;;;;15.50;13.75;;;;;;;;5050890;28;8781;-76
2023/11/11 18:02:58;;;;;;;;;17.25;14.25;;;;;;;;5053070;28;8815;-76
2023/11/11 18:05:26;;;;;;;;;14.25;12.75;;;;;;;;5050507;28;8829;-78
2023/11/11 18:07:52;;;;;;;;;14.00;12.75;;;;;;;;5049435;28;11431;-77
2023/11/11 18:10:18;;;;;;;;;18.25;14.25;;;;;;;;5050893;28;11448;-77
2023/11/11 18:12:43;;;;;;;;;17.50;16.00;;;;;;;;5051319;28;8928;-82
2023/11/11 18:15:09;;;;;;;;;14.25;12.00;;;;;;;;5049753;28;8844;-88
2023/11/11 18:17:34;;;;;;;;;17.75;14.00;;;;;;;;5052816;28;8797;-82
2023/11/11 18:19:59;;;;;;;;;17.50;15.00;;;;;;;;5050238;28;8789;-82
2023/11/11 18:22:25;;;;;;;;;15.00;12.25;;;;;;;;5050426;28;8905;-82
2023/11/11 18:24:51;;;;;;;;;15.00;12.75;;;;;;;;5050569;28;8855;-84
2023/11/11 18:27:16;;;;;;;;;15.50;13.50;;;;;;;;5050815;28;9511;-84
2023/11/11 18:29:42;;;;;;;;;15.50;14.25;;;;;;;;5049718;28;9600;-82
2023/11/11 18:32:10;;;;;;;;;18.50;16.50;;;;;;;;5050666;28;8896;-87
2023/11/11 18:34:35;;;;;;;;;17.25;14.25;;;;;;;;5050147;28;11496;-86
2023/11/11 18:37:01;;;;;;;;;15.00;12.00;;;;;;;;5049306;28;11663;-84
